createdAt,value
2023-01-19T00:00:52.874Z,0.40
2023-01-19T00:03:19.682Z,0.40
2023-01-19T00:05:46.584Z,0.40
2023-01-19T00:08:23.117Z,0.40
2023-01-19T00:10:55.062Z,0.40
2023-01-19T00:13:21.760Z,0.40
2023-01-19T00:15:48.471Z,0.30
2023-01-19T00:18:17.183Z,0.30
2023-01-19T00:20:46.354Z,0.30
2023-01-19T00:23:14.165Z,0.30
2023-01-19T00:25:42.677Z,0.30
2023-01-19T00:28:14.488Z,0.40
2023-01-19T00:30:42.231Z,0.30
2023-01-19T00:33:09.849Z,0.40
2023-01-19T00:35:36.962Z,0.30
2023-01-19T00:38:04.021Z,0.30
2023-01-19T00:40:30.958Z,0.30
2023-01-19T00:42:58.472Z,0.40
2023-01-19T00:45:25.641Z,0.30
2023-01-19T00:47:57.273Z,0.30
2023-01-19T00:50:28.402Z,0.30
2023-01-19T00:52:56.618Z,0.30
2023-01-19T00:55:23.981Z,0.30
2023-01-19T00:57:51.284Z,0.30
2023-01-19T01:00:21.896Z,0.30
2023-01-19T01:02:50.340Z,0.30
2023-01-19T01:05:18.314Z,0.30
2023-01-19T01:07:45.742Z,0.30
2023-01-19T01:10:25.459Z,0.30
2023-01-19T01:12:54.899Z,0.30
2023-01-19T01:15:24.744Z,0.30
2023-01-19T01:17:53.047Z,0.40
2023-01-19T01:20:22.664Z,0.30
2023-01-19T01:22:52.696Z,0.30
2023-01-19T01:25:22.614Z,0.40
2023-01-19T01:27:50.036Z,0.40
2023-01-19T01:30:17.564Z,0.40
2023-01-19T01:32:44.452Z,0.40
2023-01-19T01:35:12.193Z,0.40
2023-01-19T01:37:39.771Z,0.30
2023-01-19T01:40:07.289Z,0.40
2023-01-19T01:42:34.710Z,0.40
2023-01-19T01:45:06.153Z,0.40
2023-01-19T01:47:32.867Z,0.30
2023-01-19T01:50:15.860Z,0.40
2023-01-19T01:53:08.535Z,0.40
2023-01-19T01:55:39.409Z,0.40
2023-01-19T01:58:07.187Z,0.40
2023-01-19T02:00:54.073Z,0.40
2023-01-19T02:03:23.431Z,0.50
2023-01-19T02:05:51.315Z,0.40
2023-01-19T02:09:23.439Z,0.40
2023-01-19T02:12:09.813Z,0.30
2023-01-19T02:14:38.941Z,0.40
2023-01-19T02:17:06.948Z,0.40
2023-01-19T02:19:41.891Z,0.40
2023-01-19T02:22:18.985Z,0.40
2023-01-19T02:24:45.947Z,0.40
2023-01-19T02:27:13.149Z,0.30
2023-01-19T02:29:40.121Z,0.30
2023-01-19T02:32:08.089Z,0.30
2023-01-19T02:34:35.825Z,0.30
2023-01-19T02:37:13.427Z,0.30
2023-01-19T02:40:09.760Z,0.30
2023-01-19T02:43:00.909Z,0.30
2023-01-19T02:45:28.207Z,0.30
2023-01-19T02:47:54.979Z,0.30
2023-01-19T02:50:46.118Z,0.20
2023-01-19T02:53:25.456Z,0.20
2023-01-19T02:56:20.754Z,0.20
2023-01-19T02:59:22.602Z,0.20
2023-01-19T03:02:38.062Z,0.20
2023-01-19T03:05:10.777Z,0.20
2023-01-19T03:07:46.660Z,0.20
2023-01-19T03:10:26.197Z,0.20
2023-01-19T03:12:54.762Z,0.10
2023-01-19T03:15:31.838Z,0.10
2023-01-19T03:18:03.813Z,0.10
2023-01-19T03:20:30.685Z,0.10
2023-01-19T03:23:02.979Z,0.10
2023-01-19T03:25:34.646Z,0.10
2023-01-19T03:28:03.459Z,0.10
2023-01-19T03:30:35.231Z,0.10
2023-01-19T03:33:08.199Z,0.10
2023-01-19T03:35:38.835Z,0.10
2023-01-19T03:38:11.867Z,0.10
2023-01-19T03:40:42.263Z,0.00
2023-01-19T03:43:09.698Z,0.10
2023-01-19T03:45:39.889Z,0.10
2023-01-19T03:48:07.371Z,0.10
2023-01-19T03:50:34.330Z,0.00
2023-01-19T03:53:07.817Z,0.00
2023-01-19T03:55:35.969Z,0.00
2023-01-19T03:58:02.760Z,0.00
2023-01-19T04:00:30.145Z,0.00
2023-01-19T04:02:57.178Z,0.00
2023-01-19T04:05:26.792Z,-0.10
2023-01-19T04:07:54.026Z,-0.10
2023-01-19T04:10:21.503Z,-0.10
2023-01-19T04:12:48.715Z,-0.20
2023-01-19T04:15:16.106Z,-0.20
2023-01-19T04:17:42.914Z,-0.20
2023-01-19T04:20:11.683Z,-0.20
2023-01-19T04:22:39.292Z,-0.20
2023-01-19T04:25:07.573Z,-0.20
2023-01-19T04:27:34.917Z,-0.30
2023-01-19T04:30:01.731Z,-0.20
2023-01-19T04:32:28.455Z,-0.30
2023-01-19T04:34:55.275Z,-0.30
2023-01-19T04:37:22.469Z,-0.20
2023-01-19T04:39:49.207Z,-0.30
2023-01-19T04:42:16.848Z,-0.30
2023-01-19T04:44:43.548Z,-0.30
2023-01-19T04:47:11.374Z,-0.30
2023-01-19T04:49:38.102Z,-0.30
2023-01-19T04:52:08.214Z,-0.30
2023-01-19T04:54:35.056Z,-0.30
2023-01-19T04:57:01.957Z,-0.30
2023-01-19T04:59:28.637Z,-0.30
2023-01-19T05:01:56.455Z,-0.30
2023-01-19T05:04:25.604Z,-0.30
2023-01-19T05:06:54.131Z,-0.30
2023-01-19T05:09:20.829Z,-0.30
2023-01-19T05:11:47.543Z,-0.30
2023-01-19T05:14:14.434Z,-0.30
2023-01-19T05:16:41.235Z,-0.30
2023-01-19T05:19:08.066Z,-0.30
2023-01-19T05:21:34.822Z,-0.30
2023-01-19T05:24:01.654Z,-0.30
2023-01-19T05:26:28.399Z,-0.30
2023-01-19T05:28:55.177Z,-0.40
2023-01-19T05:31:21.922Z,-0.40
2023-01-19T05:33:49.139Z,-0.40
2023-01-19T05:36:15.860Z,-0.40
2023-01-19T05:38:42.550Z,-0.50
2023-01-19T05:41:09.414Z,-0.50
2023-01-19T05:43:36.196Z,-0.50
2023-01-19T05:46:05.204Z,-0.50
2023-01-19T05:48:32.091Z,-0.60
2023-01-19T05:51:00.179Z,-0.60
2023-01-19T05:53:27.989Z,-0.60
2023-01-19T05:56:00.254Z,-0.70
2023-01-19T05:58:26.967Z,-0.70
2023-01-19T06:00:53.679Z,-0.60
2023-01-19T06:03:20.575Z,-0.60
2023-01-19T06:05:47.457Z,-0.70
2023-01-19T06:08:14.592Z,-0.70
2023-01-19T06:10:41.397Z,-0.70
2023-01-19T06:13:09.767Z,-0.70
2023-01-19T06:15:37.454Z,-0.20
2023-01-19T06:18:04.298Z,-0.70
2023-01-19T06:20:31.222Z,-0.70
2023-01-19T06:22:58.475Z,-0.60
2023-01-19T06:25:26.029Z,-0.60
2023-01-19T06:27:52.738Z,-0.60
2023-01-19T06:30:19.815Z,-0.60
2023-01-19T06:32:47.386Z,-0.60
2023-01-19T06:35:14.743Z,-0.60
2023-01-19T06:37:41.641Z,-0.70
2023-01-19T06:40:09.205Z,-0.80
2023-01-19T06:42:35.917Z,-0.80
2023-01-19T06:45:02.664Z,-0.90
2023-01-19T06:47:29.562Z,-0.80
2023-01-19T06:49:56.642Z,-0.90
2023-01-19T06:52:23.312Z,-0.90
2023-01-19T06:54:49.988Z,-1.10
2023-01-19T06:57:17.236Z,-1.10
2023-01-19T06:59:44.177Z,-1.10
2023-01-19T07:02:27.394Z,-1.10
2023-01-19T07:04:56.435Z,-1.10
2023-01-19T07:07:23.152Z,-1.20
2023-01-19T07:09:49.834Z,-1.20
2023-01-19T07:12:20.666Z,-1.20
2023-01-19T07:14:49.359Z,-1.20
2023-01-19T07:17:16.127Z,-1.20
2023-01-19T07:19:42.890Z,-1.20
2023-01-19T07:22:09.607Z,-1.20
2023-01-19T07:24:37.987Z,-1.20
2023-01-19T07:27:05.540Z,-1.20
2023-01-19T07:29:32.324Z,-1.20
2023-01-19T07:31:59.093Z,-1.20
2023-01-19T07:34:25.805Z,-1.20
2023-01-19T07:36:52.519Z,-1.20
2023-01-19T07:39:19.294Z,-1.20
2023-01-19T07:41:48.625Z,-1.20
2023-01-19T07:44:15.688Z,-1.20
2023-01-19T07:46:43.347Z,-1.20
2023-01-19T07:49:10.200Z,-1.20
2023-01-19T07:51:37.108Z,-1.20
2023-01-19T07:54:03.858Z,-1.10
2023-01-19T07:56:33.968Z,-1.10
2023-01-19T07:59:00.969Z,-1.10
2023-01-19T08:01:27.876Z,-1.00
2023-01-19T08:03:54.703Z,-1.00
2023-01-19T08:06:24.517Z,-0.90
2023-01-19T08:08:51.249Z,-0.90
2023-01-19T08:11:17.935Z,-0.80
2023-01-19T08:13:44.777Z,-0.70
2023-01-19T08:16:11.597Z,-0.60
2023-01-19T08:18:38.348Z,-0.50
2023-01-19T08:21:05.247Z,-0.40
2023-01-19T08:23:32.001Z,-0.40
2023-01-19T08:25:58.737Z,-0.40
2023-01-19T08:28:26.072Z,-0.40
2023-01-19T08:30:55.987Z,-0.30
2023-01-19T08:33:25.263Z,-0.20
2023-01-19T08:35:54.213Z,-0.20
2023-01-19T08:38:21.073Z,-0.30
2023-01-19T08:40:49.059Z,-0.40
2023-01-19T08:43:17.151Z,-0.40
2023-01-19T08:45:49.901Z,-0.40
2023-01-19T08:48:19.535Z,-0.30
2023-01-19T08:50:47.638Z,-0.30
2023-01-19T08:53:15.151Z,-0.30
2023-01-19T08:55:42.351Z,-0.20
2023-01-19T08:58:09.269Z,-0.20
2023-01-19T09:00:38.139Z,-0.20
2023-01-19T09:03:06.523Z,-0.10
2023-01-19T09:05:37.199Z,-0.10
2023-01-19T09:08:06.296Z,0.00
2023-01-19T09:10:36.036Z,0.00
2023-01-19T09:13:08.365Z,0.20
2023-01-19T09:15:37.604Z,0.20
2023-01-19T09:18:13.099Z,0.20
2023-01-19T09:20:42.679Z,0.30
2023-01-19T09:23:11.145Z,0.50
2023-01-19T09:25:42.606Z,0.80
2023-01-19T09:28:11.264Z,1.40
2023-01-19T09:30:39.359Z,1.50
2023-01-19T09:33:12.333Z,1.90
2023-01-19T09:35:39.817Z,2.30
2023-01-19T09:38:08.833Z,2.20
2023-01-19T09:40:42.180Z,2.20
2023-01-19T09:43:15.242Z,2.10
2023-01-19T09:45:57.581Z,2.00
2023-01-19T09:48:45.848Z,2.30
2023-01-19T09:51:20.228Z,2.60
2023-01-19T09:54:08.410Z,2.70
2023-01-19T09:56:35.403Z,2.50
2023-01-19T09:59:15.155Z,1.90
2023-01-19T10:02:00.045Z,2.20
2023-01-19T10:04:53.045Z,2.50
2023-01-19T10:07:53.156Z,2.60
2023-01-19T10:10:20.205Z,2.50
2023-01-19T10:12:52.769Z,2.80
2023-01-19T10:16:14.855Z,2.40
2023-01-19T10:18:51.555Z,3.00
2023-01-19T10:21:31.404Z,3.30
2023-01-19T10:24:21.100Z,3.70
2023-01-19T10:26:52.565Z,4.40
2023-01-19T10:29:29.183Z,4.90
2023-01-19T10:32:13.860Z,5.50
2023-01-19T10:34:41.661Z,5.70
2023-01-19T10:37:36.895Z,5.40
2023-01-19T10:40:09.468Z,5.50
2023-01-19T10:42:37.829Z,5.90
2023-01-19T10:45:24.744Z,5.10
2023-01-19T10:47:53.820Z,5.80
2023-01-19T10:50:32.042Z,5.90
2023-01-19T10:53:01.557Z,5.80
2023-01-19T10:55:34.695Z,5.00
2023-01-19T10:58:02.008Z,4.70
2023-01-19T11:00:38.003Z,6.10
2023-01-19T11:03:43.583Z,6.60
2023-01-19T11:06:22.514Z,6.80
2023-01-19T11:08:51.824Z,6.70
2023-01-19T11:11:20.445Z,6.10
2023-01-19T11:14:11.206Z,6.00
2023-01-19T11:16:40.061Z,6.10
2023-01-19T11:19:35.258Z,5.90
2023-01-19T11:22:26.938Z,6.70
2023-01-19T11:24:58.715Z,5.70
2023-01-19T11:27:26.520Z,6.00
2023-01-19T11:30:09.834Z,6.40
2023-01-19T11:32:37.168Z,7.00
2023-01-19T11:35:33.914Z,7.30
2023-01-19T11:38:06.513Z,8.10
2023-01-19T11:40:35.372Z,8.60
2023-01-19T11:43:02.561Z,8.80
2023-01-19T11:45:31.600Z,8.70
2023-01-19T11:48:03.006Z,9.10
2023-01-19T11:50:35.032Z,9.00
2023-01-19T11:53:20.223Z,8.70
2023-01-19T11:55:53.157Z,9.20
2023-01-19T11:58:21.523Z,8.50
2023-01-19T12:01:09.823Z,9.30
2023-01-19T12:03:44.158Z,9.30
2023-01-19T12:06:18.331Z,9.20
2023-01-19T12:08:54.719Z,7.70
2023-01-19T12:11:26.601Z,8.20
2023-01-19T12:13:56.879Z,7.80
2023-01-19T12:16:28.485Z,7.60
2023-01-19T12:19:10.949Z,6.80
2023-01-19T12:21:38.229Z,7.10
2023-01-19T12:24:18.677Z,7.20
2023-01-19T12:26:58.259Z,6.40
2023-01-19T12:29:30.263Z,5.90
2023-01-19T12:32:20.015Z,6.40
2023-01-19T12:34:51.937Z,6.60
2023-01-19T12:37:32.035Z,6.90
2023-01-19T12:40:02.469Z,5.90
2023-01-19T12:42:29.990Z,5.30
2023-01-19T12:45:25.804Z,5.30
2023-01-19T12:47:53.780Z,4.60
2023-01-19T12:50:24.173Z,4.80
2023-01-19T12:52:57.127Z,4.60
2023-01-19T12:55:31.084Z,3.90
2023-01-19T12:58:00.793Z,3.80
2023-01-19T13:00:38.097Z,4.00
2023-01-19T13:03:19.588Z,3.90
2023-01-19T13:05:53.983Z,4.10
2023-01-19T13:08:22.912Z,3.80
2023-01-19T13:10:55.290Z,3.60
2023-01-19T13:13:31.232Z,3.70
2023-01-19T13:16:20.030Z,3.60
2023-01-19T13:18:48.531Z,3.60
2023-01-19T13:21:28.194Z,3.50
2023-01-19T13:23:58.027Z,3.20
2023-01-19T13:26:32.269Z,3.00
2023-01-19T13:29:19.591Z,3.00
2023-01-19T13:31:52.741Z,3.00
2023-01-19T13:34:25.598Z,3.00
2023-01-19T13:36:55.107Z,3.00
2023-01-19T13:39:40.859Z,3.20
2023-01-19T13:42:21.035Z,3.20
2023-01-19T13:44:53.109Z,3.30
2023-01-19T13:47:24.458Z,3.40
2023-01-19T13:49:56.641Z,3.40
2023-01-19T13:52:28.379Z,3.30
2023-01-19T13:54:59.872Z,3.20
2023-01-19T13:57:38.427Z,2.90
2023-01-19T14:00:17.288Z,2.80
2023-01-19T14:03:18.449Z,3.00
2023-01-19T14:05:45.697Z,3.10
2023-01-19T14:08:15.299Z,2.40
2023-01-19T14:10:46.418Z,2.50
2023-01-19T14:13:17.808Z,2.40
2023-01-19T14:15:45.991Z,2.40
2023-01-19T14:18:18.834Z,2.30
2023-01-19T14:21:11.820Z,2.30
2023-01-19T14:23:51.990Z,2.10
2023-01-19T14:26:37.721Z,2.10
2023-01-19T14:29:12.328Z,2.20
2023-01-19T14:31:48.025Z,2.20
2023-01-19T14:34:41.315Z,2.10
2023-01-19T14:37:30.348Z,2.00
2023-01-19T14:40:10.983Z,2.00
2023-01-19T14:43:08.471Z,1.80
2023-01-19T14:45:37.958Z,1.70
2023-01-19T14:48:12.662Z,1.80
2023-01-19T14:50:54.182Z,1.80
2023-01-19T14:53:29.849Z,1.70
2023-01-19T14:56:00.478Z,1.70
2023-01-19T14:58:29.586Z,1.70
2023-01-19T15:00:56.525Z,1.60
2023-01-19T15:03:32.003Z,1.50
2023-01-19T15:06:15.418Z,1.50
2023-01-19T15:08:42.879Z,1.60
2023-01-19T15:11:31.622Z,1.60
2023-01-19T15:13:59.441Z,1.70
2023-01-19T15:16:28.031Z,1.60
2023-01-19T15:18:55.360Z,1.70
2023-01-19T15:21:28.955Z,1.60
2023-01-19T15:23:55.816Z,1.60
2023-01-19T15:26:25.083Z,1.60
2023-01-19T15:28:52.408Z,1.40
2023-01-19T15:31:22.104Z,1.40
2023-01-19T15:33:49.302Z,1.40
2023-01-19T15:36:18.673Z,1.40
2023-01-19T15:38:46.685Z,1.30
2023-01-19T15:41:14.776Z,1.30
2023-01-19T15:43:41.622Z,1.40
2023-01-19T15:46:11.243Z,1.40
2023-01-19T15:48:37.975Z,1.40
2023-01-19T15:51:05.612Z,1.40
2023-01-19T15:53:32.367Z,1.30
2023-01-19T15:55:59.304Z,1.30
2023-01-19T15:58:26.681Z,1.40
2023-01-19T16:00:58.607Z,1.50
2023-01-19T16:03:26.283Z,1.40
2023-01-19T16:05:53.189Z,1.40
2023-01-19T16:08:21.960Z,1.30
2023-01-19T16:10:48.779Z,1.20
2023-01-19T16:13:15.506Z,1.20
2023-01-19T16:15:42.560Z,1.20
2023-01-19T16:18:09.522Z,1.30
2023-01-19T16:20:36.437Z,1.30
2023-01-19T16:23:14.416Z,1.30
2023-01-19T16:25:42.028Z,1.30
2023-01-19T16:28:09.107Z,1.20
2023-01-19T16:30:35.991Z,1.20
2023-01-19T16:33:02.906Z,1.10
2023-01-19T16:35:29.670Z,1.00
2023-01-19T16:37:56.431Z,1.10
2023-01-19T16:40:23.267Z,1.10
2023-01-19T16:42:50.612Z,1.10
2023-01-19T16:45:17.377Z,1.10
2023-01-19T16:47:45.475Z,1.20
2023-01-19T16:50:12.635Z,1.10
2023-01-19T16:52:39.660Z,1.10
2023-01-19T16:55:09.435Z,1.10
2023-01-19T16:57:39.090Z,1.10
2023-01-19T17:00:07.877Z,1.10
2023-01-19T17:02:34.864Z,1.10
2023-01-19T17:05:01.668Z,1.10
2023-01-19T17:07:28.747Z,1.20
2023-01-19T17:09:56.132Z,1.10
2023-01-19T17:12:25.539Z,1.10
2023-01-19T17:14:52.414Z,1.00
2023-01-19T17:17:19.183Z,1.00
2023-01-19T17:19:46.052Z,1.00
2023-01-19T17:22:14.277Z,1.00
2023-01-19T17:24:42.426Z,1.00
2023-01-19T17:27:09.873Z,1.00
2023-01-19T17:29:36.626Z,1.00
2023-01-19T17:32:03.679Z,1.00
2023-01-19T17:34:30.509Z,1.00
2023-01-19T17:37:02.856Z,1.00
2023-01-19T17:39:30.088Z,1.00
2023-01-19T17:41:57.732Z,1.00
2023-01-19T17:44:24.718Z,1.00
2023-01-19T17:46:51.508Z,1.00
2023-01-19T17:49:21.241Z,1.00
2023-01-19T17:51:51.902Z,1.00
2023-01-19T17:54:18.809Z,1.00
2023-01-19T17:56:45.541Z,1.00
2023-01-19T17:59:14.651Z,1.00
2023-01-19T18:01:42.872Z,1.00
2023-01-19T18:04:09.865Z,1.10
2023-01-19T18:06:37.757Z,1.10
2023-01-19T18:09:06.939Z,1.00
2023-01-19T18:11:34.587Z,0.90
2023-01-19T18:14:02.117Z,1.00
2023-01-19T18:16:29.853Z,1.00
2023-01-19T18:18:57.606Z,0.90
2023-01-19T18:21:28.126Z,0.90
2023-01-19T18:24:01.384Z,0.90
2023-01-19T18:26:29.059Z,0.90
2023-01-19T18:28:57.027Z,1.00
2023-01-19T18:31:25.114Z,0.90
2023-01-19T18:33:51.972Z,0.80
2023-01-19T18:36:19.019Z,0.90
2023-01-19T18:38:47.134Z,0.90
2023-01-19T18:41:16.288Z,0.90
2023-01-19T18:43:43.719Z,0.90
2023-01-19T18:46:11.341Z,0.90
2023-01-19T18:48:39.272Z,0.90
2023-01-19T18:51:15.810Z,0.90
2023-01-19T18:53:43.905Z,0.80
2023-01-19T18:56:15.709Z,0.80
2023-01-19T18:58:43.678Z,0.70
2023-01-19T19:01:32.288Z,0.80
2023-01-19T19:03:59.985Z,0.80
2023-01-19T19:06:27.422Z,0.80
2023-01-19T19:08:57.074Z,0.80
2023-01-19T19:11:39.056Z,0.80
2023-01-19T19:14:06.476Z,0.80
2023-01-19T19:16:35.839Z,0.80
2023-01-19T19:19:03.922Z,0.80
2023-01-19T19:21:30.713Z,0.90
2023-01-19T19:23:58.437Z,0.90
2023-01-19T19:26:27.978Z,0.90
2023-01-19T19:28:55.075Z,0.80
2023-01-19T19:31:23.266Z,0.80
2023-01-19T19:33:51.275Z,0.80
2023-01-19T19:36:19.933Z,0.80
2023-01-19T19:38:47.830Z,0.80
2023-01-19T19:41:21.180Z,0.80
2023-01-19T19:43:48.029Z,0.90
2023-01-19T19:46:16.767Z,0.90
2023-01-19T19:48:43.536Z,0.90
2023-01-19T19:51:18.598Z,0.90
2023-01-19T19:53:47.044Z,0.80
2023-01-19T19:56:14.327Z,0.80
2023-01-19T19:58:42.401Z,0.80
2023-01-19T20:01:20.372Z,0.80
2023-01-19T20:03:47.401Z,0.80
2023-01-19T20:06:20.806Z,0.80
2023-01-19T20:08:48.711Z,0.70
2023-01-19T20:11:18.059Z,0.70
2023-01-19T20:13:45.308Z,0.70
2023-01-19T20:16:14.696Z,0.70
2023-01-19T20:18:46.337Z,0.70
2023-01-19T20:21:18.932Z,0.70
2023-01-19T20:23:47.190Z,0.80
2023-01-19T20:26:16.056Z,0.80
2023-01-19T20:28:42.957Z,0.70
2023-01-19T20:31:12.917Z,0.70
2023-01-19T20:33:40.932Z,0.80
2023-01-19T20:36:14.227Z,0.70
2023-01-19T20:38:42.170Z,0.70
2023-01-19T20:41:10.536Z,0.70
2023-01-19T20:43:37.550Z,0.70
2023-01-19T20:46:04.759Z,0.60
2023-01-19T20:48:32.083Z,0.60
2023-01-19T20:51:06.277Z,0.60
2023-01-19T20:53:33.194Z,0.60
2023-01-19T20:56:07.806Z,0.70
2023-01-19T20:58:34.590Z,0.70
2023-01-19T21:01:31.635Z,0.70
2023-01-19T21:03:58.591Z,0.70
2023-01-19T21:06:25.731Z,0.70
2023-01-19T21:08:52.590Z,0.70
2023-01-19T21:11:21.106Z,0.60
2023-01-19T21:13:49.046Z,0.60
2023-01-19T21:16:16.262Z,0.60
2023-01-19T21:18:43.643Z,0.60
2023-01-19T21:21:20.803Z,0.50
2023-01-19T21:24:00.202Z,0.50
2023-01-19T21:26:29.796Z,0.40
2023-01-19T21:28:58.431Z,0.40
2023-01-19T21:31:27.515Z,0.40
2023-01-19T21:33:54.735Z,0.50
2023-01-19T21:36:22.535Z,0.40
2023-01-19T21:38:51.399Z,0.40
2023-01-19T21:41:18.577Z,0.40
2023-01-19T21:43:46.141Z,0.40
2023-01-19T21:46:17.523Z,0.40
2023-01-19T21:48:45.769Z,0.30
2023-01-19T21:51:13.424Z,0.40
2023-01-19T21:53:40.393Z,0.50
2023-01-19T21:56:12.839Z,0.40
2023-01-19T21:58:39.592Z,0.40
2023-01-19T22:01:12.608Z,0.30
2023-01-19T22:03:40.356Z,0.30
2023-01-19T22:06:13.204Z,0.20
2023-01-19T22:08:40.625Z,0.30
2023-01-19T22:11:12.675Z,0.30
2023-01-19T22:13:39.863Z,0.30
2023-01-19T22:16:10.351Z,0.30
2023-01-19T22:18:39.139Z,0.30
2023-01-19T22:21:14.275Z,0.20
2023-01-19T22:23:42.121Z,0.20
2023-01-19T22:26:11.199Z,0.20
2023-01-19T22:28:38.500Z,0.10
2023-01-19T22:31:07.766Z,0.20
2023-01-19T22:33:35.022Z,0.10
2023-01-19T22:36:22.903Z,0.10
2023-01-19T22:39:00.545Z,0.10
2023-01-19T22:41:40.620Z,0.10
2023-01-19T22:44:10.224Z,0.10
2023-01-19T22:46:37.822Z,0.10
2023-01-19T22:49:07.452Z,0.10
2023-01-19T22:51:35.090Z,0.10
2023-01-19T22:54:02.189Z,0.10
2023-01-19T22:56:31.543Z,0.10
2023-01-19T22:58:59.260Z,0.10
2023-01-19T23:01:36.333Z,0.20
2023-01-19T23:04:04.525Z,0.20
2023-01-19T23:06:34.277Z,0.20
2023-01-19T23:09:04.098Z,0.20
2023-01-19T23:11:36.012Z,0.20
2023-01-19T23:14:04.016Z,0.30
2023-01-19T23:16:30.790Z,0.20
2023-01-19T23:18:58.523Z,0.20
2023-01-19T23:21:27.578Z,0.10
2023-01-19T23:23:59.697Z,0.10
2023-01-19T23:26:27.712Z,0.00
2023-01-19T23:28:56.612Z,0.00
2023-01-19T23:31:32.167Z,0.00
2023-01-19T23:34:04.819Z,0.00
2023-01-19T23:36:33.946Z,0.00
2023-01-19T23:39:06.887Z,0.00
2023-01-19T23:41:34.668Z,0.00
2023-01-19T23:44:02.016Z,0.00
2023-01-19T23:46:29.258Z,-0.10
2023-01-19T23:48:56.215Z,-0.10
2023-01-19T23:51:26.245Z,-0.10
2023-01-19T23:53:53.057Z,-0.10
2023-01-19T23:56:28.776Z,-0.10
2023-01-19T23:59:02.221Z,-0.10
